PWSweather.com
Personal Weather Stations
Station Observations
WISCHPK61
Green Bay Schmitt Park, Green Bay, WI 54311

Green Bay Schmitt ParkGreen Bay, WI 54311

Lat: 44.514277, Lon: -87.935067

Elevation: 735

Station Type: Acu Rite Pro Weather Center model 02032C

http://greenbayweathercam.com

High Low Average
Temperature 32.5°F0.3°C 11.1°F-11.6°C 22.4°F-5.3°C
Dew Point 32.0°F0.0°C 10.6°F-11.9°C 22.0°F-5.6°C
Winds 2.3 mph 3.7 kmh Calm Calm Calm SSWCalm SSW
Wind Gusts 3.5 mph5.6 kmh -- --
Humidity 99% 95% 98%
Pressure 29.33 in993.2 mb 28.81 in975.6 mb -
Precipitation 0.00 in0.0 mm - -
Hour Temp Dew Point Humidity Winds Wind Gusts Pressure Precip Precip Rate Daily Precip Total
12:00 AM 19.2°F-7.1°C 19.0°F-7.2°C 99% Calm Calm -- 29.33 in993.2 mb - 0.00 in0.0 mm 0.00 in0.0 mm
01:00 AM 19.2°F-7.1°C 19.0°F-7.2°C 99% Calm Calm -- 29.33 in993.2 mb - 0.00 in0.0 mm 0.00 in0.0 mm
02:00 AM 19.8°F-6.8°C 19.3°F-7.1°C 98% Calm Calm -- 29.32 in992.9 mb - 0.00 in0.0 mm 0.00 in0.0 mm
03:00 AM 20.3°F-6.5°C 20.1°F-6.6°C 99% Calm Calm -- 29.30 in992.2 mb - 0.00 in0.0 mm 0.00 in0.0 mm
04:00 AM 20.5°F-6.4°C 19.8°F-6.8°C 97% Calm Calm -- 29.27 in991.2 mb - 0.00 in0.0 mm 0.00 in0.0 mm
05:00 AM 20.3°F-6.5°C 19.8°F-6.8°C 98% Calm Calm -- 29.25 in990.5 mb - 0.00 in0.0 mm 0.00 in0.0 mm
06:00 AM 20.3°F-6.5°C 20.1°F-6.6°C 99% Calm Calm -- 29.24 in990.2 mb - 0.00 in0.0 mm 0.00 in0.0 mm
07:00 AM 20.3°F-6.5°C 20.1°F-6.6°C 99% Calm Calm -- 29.23 in989.8 mb - 0.00 in0.0 mm 0.00 in0.0 mm
08:00 AM 19.9°F-6.7°C 19.4°F-7.0°C 98% Calm Calm -- 29.23 in989.8 mb - 0.00 in0.0 mm 0.00 in0.0 mm
09:00 AM 20.3°F-6.5°C 20.1°F-6.6°C 99% Calm Calm -- 29.15 in987.1 mb - 0.00 in0.0 mm 0.00 in0.0 mm
10:00 AM 21.0°F-6.1°C 20.3°F-6.5°C 97% Calm Calm -- 29.16 in987.5 mb - 0.00 in0.0 mm 0.00 in0.0 mm
11:00 AM 23.7°F-4.6°C 23.5°F-4.7°C 99% Calm Calm -- 29.09 in985.1 mb - 0.00 in0.0 mm 0.00 in0.0 mm
12:00 PM 26.4°F-3.1°C 25.9°F-3.4°C 98% Calm Calm -- 29.04 in983.4 mb - 0.00 in0.0 mm 0.00 in0.0 mm
01:00 PM 27.1°F-2.7°C 26.9°F-2.8°C 99% Calm Calm -- 28.97 in981.0 mb - 0.00 in0.0 mm 0.00 in0.0 mm
02:00 PM 30.9°F-0.6°C 30.7°F-0.7°C 99% Calm Calm -- 28.88 in978.0 mb - 0.00 in0.0 mm 0.00 in0.0 mm
03:00 PM 32.5°F0.3°C 32.0°F0.0°C 98% Calm Calm -- 28.84 in976.6 mb - 0.00 in0.0 mm 0.00 in0.0 mm
04:00 PM 28.0°F-2.2°C 27.8°F-2.3°C 99% Calm Calm -- 28.87 in977.7 mb - 0.00 in0.0 mm 0.00 in0.0 mm
05:00 PM 25.7°F-3.5°C 25.5°F-3.6°C 99% Calm Calm -- 28.84 in976.6 mb - 0.00 in0.0 mm 0.00 in0.0 mm
06:00 PM 23.9°F-4.5°C 23.4°F-4.8°C 98% Calm Calm -- 28.83 in976.3 mb - 0.00 in0.0 mm 0.00 in0.0 mm
07:00 PM 22.1°F-5.5°C 21.6°F-5.8°C 98% Calm Calm 1.2 mph1.9 kmh 28.81 in975.6 mb - 0.00 in0.0 mm 0.00 in0.0 mm
08:00 PM 21.7°F-5.7°C 21.5°F-5.8°C 99% Calm Calm 2.3 mph3.7 kmh 28.87 in977.7 mb - 0.00 in0.0 mm 0.00 in0.0 mm
09:00 PM 22.6°F-5.2°C 22.4°F-5.3°C 99% Calm Calm -- 28.88 in978.0 mb - 0.00 in0.0 mm 0.00 in0.0 mm
10:00 PM 23.2°F-4.9°C 22.0°F-5.6°C 95% Calm Calm 1.2 mph1.9 kmh 28.89 in978.3 mb - 0.00 in0.0 mm 0.00 in0.0 mm
11:00 PM 16.2°F-8.8°C 16.0°F-8.9°C 99% 2.3 mph W3.7 kmh W 3.5 mph5.6 kmh 28.95 in980.4 mb - 0.00 in0.0 mm 0.00 in0.0 mm